sensor_id;sensor_type;location;lat;lon;timestamp;temperature;humidity
21033;DHT22;10675;47.976;7.824;2023-02-16T00:01:54;2.50;99.90
21033;DHT22;10675;47.976;7.824;2023-02-16T00:04:22;2.30;99.90
21033;DHT22;10675;47.976;7.824;2023-02-16T00:06:49;2.30;99.90
21033;DHT22;10675;47.976;7.824;2023-02-16T00:09:15;2.30;99.90
21033;DHT22;10675;47.976;7.824;2023-02-16T00:11:41;2.30;99.90
21033;DHT22;10675;47.976;7.824;2023-02-16T00:14:26;2.20;99.90
21033;DHT22;10675;47.976;7.824;2023-02-16T00:16:53;2.10;99.90
21033;DHT22;10675;47.976;7.824;2023-02-16T00:19:28;2.10;99.90
21033;DHT22;10675;47.976;7.824;2023-02-16T00:21:57;2.00;99.90
21033;DHT22;10675;47.976;7.824;2023-02-16T00:24:24;2.00;99.90
21033;DHT22;10675;47.976;7.824;2023-02-16T00:26:51;1.90;99.90
21033;DHT22;10675;47.976;7.824;2023-02-16T00:29:35;1.90;99.90
21033;DHT22;10675;47.976;7.824;2023-02-16T00:32:03;1.80;99.90
21033;DHT22;10675;47.976;7.824;2023-02-16T00:34:31;1.80;99.90
21033;DHT22;10675;47.976;7.824;2023-02-16T00:36:58;1.70;99.90
21033;DHT22;10675;47.976;7.824;2023-02-16T00:39:24;1.70;99.90
21033;DHT22;10675;47.976;7.824;2023-02-16T00:41:52;1.60;99.90
21033;DHT22;10675;47.976;7.824;2023-02-16T00:44:40;1.60;99.90
21033;DHT22;10675;47.976;7.824;2023-02-16T00:47:33;1.60;99.90
21033;DHT22;10675;47.976;7.824;2023-02-16T00:49:59;1.60;99.90
21033;DHT22;10675;47.976;7.824;2023-02-16T00:54:54;1.50;99.90
21033;DHT22;10675;47.976;7.824;2023-02-16T00:57:20;1.50;99.90
21033;DHT22;10675;47.976;7.824;2023-02-16T00:59:47;1.50;99.90
21033;DHT22;10675;47.976;7.824;2023-02-16T01:02:14;1.40;99.90
21033;DHT22;10675;47.976;7.824;2023-02-16T01:04:39;1.50;99.90
21033;DHT22;10675;47.976;7.824;2023-02-16T01:07:15;1.40;99.90
21033;DHT22;10675;47.976;7.824;2023-02-16T01:10:01;1.50;99.90
21033;DHT22;10675;47.976;7.824;2023-02-16T01:13:00;1.60;99.90
21033;DHT22;10675;47.976;7.824;2023-02-16T01:15:25;1.70;99.90
21033;DHT22;10675;47.976;7.824;2023-02-16T01:17:51;1.70;99.90
21033;DHT22;10675;47.976;7.824;2023-02-16T01:20:19;1.80;99.90
21033;DHT22;10675;47.976;7.824;2023-02-16T01:22:45;1.80;99.90
21033;DHT22;10675;47.976;7.824;2023-02-16T01:25:10;2.00;99.90
21033;DHT22;10675;47.976;7.824;2023-02-16T01:27:39;1.90;99.90
21033;DHT22;10675;47.976;7.824;2023-02-16T01:30:11;1.70;99.90
21033;DHT22;10675;47.976;7.824;2023-02-16T01:32:37;1.50;99.90
21033;DHT22;10675;47.976;7.824;2023-02-16T01:35:03;1.50;99.90
21033;DHT22;10675;47.976;7.824;2023-02-16T01:37:28;1.40;99.90
21033;DHT22;10675;47.976;7.824;2023-02-16T01:39:54;1.30;99.90
21033;DHT22;10675;47.976;7.824;2023-02-16T01:42:40;1.40;99.90
21033;DHT22;10675;47.976;7.824;2023-02-16T01:45:14;1.30;99.90
21033;DHT22;10675;47.976;7.824;2023-02-16T01:47:48;1.20;99.90
21033;DHT22;10675;47.976;7.824;2023-02-16T01:50:21;1.20;99.90
21033;DHT22;10675;47.976;7.824;2023-02-16T01:53:00;1.20;99.90
21033;DHT22;10675;47.976;7.824;2023-02-16T01:55:37;1.20;99.90
21033;DHT22;10675;47.976;7.824;2023-02-16T02:03:18;1.10;99.90
21033;DHT22;10675;47.976;7.824;2023-02-16T02:06:06;1.10;99.90
21033;DHT22;10675;47.976;7.824;2023-02-16T02:08:50;1.10;99.90
21033;DHT22;10675;47.976;7.824;2023-02-16T02:11:29;1.00;99.90
21033;DHT22;10675;47.976;7.824;2023-02-16T02:14:10;1.00;99.90
21033;DHT22;10675;47.976;7.824;2023-02-16T02:16:37;1.00;99.90
21033;DHT22;10675;47.976;7.824;2023-02-16T02:19:03;1.10;99.90
21033;DHT22;10675;47.976;7.824;2023-02-16T02:27:39;1.00;99.90
21033;DHT22;10675;47.976;7.824;2023-02-16T02:30:46;1.00;99.90
21033;DHT22;10675;47.976;7.824;2023-02-16T02:41:19;0.90;99.90
21033;DHT22;10675;47.976;7.824;2023-02-16T02:43:56;0.90;99.90
21033;DHT22;10675;47.976;7.824;2023-02-16T02:46:27;1.00;99.90
21033;DHT22;10675;47.976;7.824;2023-02-16T02:48:54;1.00;99.90
21033;DHT22;10675;47.976;7.824;2023-02-16T02:51:19;1.00;99.90
21033;DHT22;10675;47.976;7.824;2023-02-16T02:54:02;1.10;99.90
21033;DHT22;10675;47.976;7.824;2023-02-16T03:00:36;1.20;99.90
21033;DHT22;10675;47.976;7.824;2023-02-16T03:02:58;1.30;99.90
21033;DHT22;10675;47.976;7.824;2023-02-16T03:05:27;1.40;99.90
21033;DHT22;10675;47.976;7.824;2023-02-16T03:07:59;1.40;99.90
21033;DHT22;10675;47.976;7.824;2023-02-16T03:10:33;1.40;99.90
21033;DHT22;10675;47.976;7.824;2023-02-16T03:13:23;1.50;99.90
21033;DHT22;10675;47.976;7.824;2023-02-16T03:15:51;1.70;99.90
21033;DHT22;10675;47.976;7.824;2023-02-16T03:18:23;1.70;99.90
21033;DHT22;10675;47.976;7.824;2023-02-16T03:21:09;1.80;99.90
21033;DHT22;10675;47.976;7.824;2023-02-16T03:23:55;1.80;99.90
21033;DHT22;10675;47.976;7.824;2023-02-16T03:26:40;1.90;99.90
21033;DHT22;10675;47.976;7.824;2023-02-16T03:29:25;2.10;99.90
21033;DHT22;10675;47.976;7.824;2023-02-16T03:31:53;2.20;99.90
21033;DHT22;10675;47.976;7.824;2023-02-16T03:34:20;2.20;99.90
21033;DHT22;10675;47.976;7.824;2023-02-16T03:36:52;2.10;99.90
21033;DHT22;10675;47.976;7.824;2023-02-16T03:39:23;2.10;99.90
21033;DHT22;10675;47.976;7.824;2023-02-16T03:41:50;2.10;99.90
21033;DHT22;10675;47.976;7.824;2023-02-16T03:44:16;2.10;99.90
21033;DHT22;10675;47.976;7.824;2023-02-16T03:46:42;2.10;99.90
21033;DHT22;10675;47.976;7.824;2023-02-16T03:49:08;2.10;99.90
21033;DHT22;10675;47.976;7.824;2023-02-16T03:51:33;2.30;99.90
21033;DHT22;10675;47.976;7.824;2023-02-16T03:53:59;2.30;99.90
21033;DHT22;10675;47.976;7.824;2023-02-16T03:56:24;2.30;99.90
21033;DHT22;10675;47.976;7.824;2023-02-16T03:58:50;2.20;99.90
21033;DHT22;10675;47.976;7.824;2023-02-16T04:01:15;2.10;99.90
21033;DHT22;10675;47.976;7.824;2023-02-16T04:03:41;2.10;99.90
21033;DHT22;10675;47.976;7.824;2023-02-16T04:06:07;2.10;99.90
21033;DHT22;10675;47.976;7.824;2023-02-16T04:08:32;2.10;99.90
21033;DHT22;10675;47.976;7.824;2023-02-16T04:10:58;2.10;99.90
21033;DHT22;10675;47.976;7.824;2023-02-16T04:13:25;2.00;99.90
21033;DHT22;10675;47.976;7.824;2023-02-16T04:15:51;2.10;99.90
21033;DHT22;10675;47.976;7.824;2023-02-16T04:18:16;2.10;99.90
21033;DHT22;10675;47.976;7.824;2023-02-16T04:20:42;2.00;99.90
21033;DHT22;10675;47.976;7.824;2023-02-16T04:23:07;2.00;99.90
21033;DHT22;10675;47.976;7.824;2023-02-16T04:25:33;1.90;99.90
21033;DHT22;10675;47.976;7.824;2023-02-16T04:27:59;1.80;99.90
21033;DHT22;10675;47.976;7.824;2023-02-16T04:30:28;2.00;99.90
21033;DHT22;10675;47.976;7.824;2023-02-16T04:32:54;2.00;99.90
21033;DHT22;10675;47.976;7.824;2023-02-16T04:35:20;2.00;99.90
21033;DHT22;10675;47.976;7.824;2023-02-16T04:37:46;1.80;99.90
21033;DHT22;10675;47.976;7.824;2023-02-16T04:40:14;1.70;99.90
21033;DHT22;10675;47.976;7.824;2023-02-16T04:42:40;1.70;99.90
21033;DHT22;10675;47.976;7.824;2023-02-16T04:45:06;1.60;99.90
21033;DHT22;10675;47.976;7.824;2023-02-16T04:47:32;1.60;99.90
21033;DHT22;10675;47.976;7.824;2023-02-16T04:49:57;1.50;99.90
21033;DHT22;10675;47.976;7.824;2023-02-16T04:52:23;1.50;99.90
21033;DHT22;10675;47.976;7.824;2023-02-16T04:54:48;1.50;99.90
21033;DHT22;10675;47.976;7.824;2023-02-16T04:57:15;1.50;99.90
21033;DHT22;10675;47.976;7.824;2023-02-16T04:59:41;1.40;99.90
21033;DHT22;10675;47.976;7.824;2023-02-16T05:02:06;1.40;99.90
21033;DHT22;10675;47.976;7.824;2023-02-16T05:04:33;1.40;99.90
21033;DHT22;10675;47.976;7.824;2023-02-16T05:06:58;1.60;99.90
21033;DHT22;10675;47.976;7.824;2023-02-16T05:09:24;1.70;99.90
21033;DHT22;10675;47.976;7.824;2023-02-16T05:11:49;1.70;99.90
21033;DHT22;10675;47.976;7.824;2023-02-16T05:14:35;1.70;99.90
21033;DHT22;10675;47.976;7.824;2023-02-16T05:17:20;1.80;99.90
21033;DHT22;10675;47.976;7.824;2023-02-16T05:19:52;1.80;99.90
21033;DHT22;10675;47.976;7.824;2023-02-16T05:22:18;1.70;99.90
21033;DHT22;10675;47.976;7.824;2023-02-16T05:24:45;1.70;99.90
21033;DHT22;10675;47.976;7.824;2023-02-16T05:27:21;1.70;99.90
21033;DHT22;10675;47.976;7.824;2023-02-16T05:29:47;1.70;99.90
21033;DHT22;10675;47.976;7.824;2023-02-16T05:32:14;1.80;99.90
21033;DHT22;10675;47.976;7.824;2023-02-16T05:34:39;2.00;99.90
21033;DHT22;10675;47.976;7.824;2023-02-16T05:37:05;2.10;99.90
21033;DHT22;10675;47.976;7.824;2023-02-16T05:39:31;2.10;99.90
21033;DHT22;10675;47.976;7.824;2023-02-16T05:41:56;2.00;99.90
21033;DHT22;10675;47.976;7.824;2023-02-16T05:44:22;2.10;99.90
21033;DHT22;10675;47.976;7.824;2023-02-16T05:46:48;2.00;99.90
21033;DHT22;10675;47.976;7.824;2023-02-16T05:49:14;1.90;99.90
21033;DHT22;10675;47.976;7.824;2023-02-16T05:51:40;1.90;99.90
21033;DHT22;10675;47.976;7.824;2023-02-16T05:54:06;1.80;99.90
21033;DHT22;10675;47.976;7.824;2023-02-16T05:56:32;1.70;99.90
21033;DHT22;10675;47.976;7.824;2023-02-16T05:58:58;1.80;99.90
21033;DHT22;10675;47.976;7.824;2023-02-16T06:01:25;1.80;99.90
21033;DHT22;10675;47.976;7.824;2023-02-16T06:03:51;1.80;99.90
21033;DHT22;10675;47.976;7.824;2023-02-16T06:06:16;1.90;99.90
21033;DHT22;10675;47.976;7.824;2023-02-16T06:08:42;2.00;99.90
21033;DHT22;10675;47.976;7.824;2023-02-16T06:11:08;2.10;99.90
21033;DHT22;10675;47.976;7.824;2023-02-16T06:13:54;2.00;99.90
21033;DHT22;10675;47.976;7.824;2023-02-16T06:16:23;1.90;99.90
21033;DHT22;10675;47.976;7.824;2023-02-16T06:18:49;1.80;99.90
21033;DHT22;10675;47.976;7.824;2023-02-16T06:21:15;1.60;99.90
21033;DHT22;10675;47.976;7.824;2023-02-16T06:23:40;1.60;99.90
21033;DHT22;10675;47.976;7.824;2023-02-16T06:26:06;1.50;99.90
21033;DHT22;10675;47.976;7.824;2023-02-16T06:28:31;1.50;99.90
21033;DHT22;10675;47.976;7.824;2023-02-16T06:30:57;1.60;99.90
21033;DHT22;10675;47.976;7.824;2023-02-16T06:33:22;1.60;99.90
21033;DHT22;10675;47.976;7.824;2023-02-16T06:35:48;1.60;99.90
21033;DHT22;10675;47.976;7.824;2023-02-16T06:38:13;1.70;99.90
21033;DHT22;10675;47.976;7.824;2023-02-16T06:40:39;1.80;99.90
21033;DHT22;10675;47.976;7.824;2023-02-16T06:43:04;1.70;99.90
21033;DHT22;10675;47.976;7.824;2023-02-16T06:45:30;1.70;99.90
21033;DHT22;10675;47.976;7.824;2023-02-16T06:47:55;1.60;99.90
21033;DHT22;10675;47.976;7.824;2023-02-16T06:50:21;1.60;99.90
21033;DHT22;10675;47.976;7.824;2023-02-16T06:52:46;1.50;99.90
21033;DHT22;10675;47.976;7.824;2023-02-16T06:55:12;1.50;99.90
21033;DHT22;10675;47.976;7.824;2023-02-16T06:57:37;1.40;99.90
21033;DHT22;10675;47.976;7.824;2023-02-16T07:00:04;1.40;99.90
21033;DHT22;10675;47.976;7.824;2023-02-16T07:02:30;1.40;99.90
21033;DHT22;10675;47.976;7.824;2023-02-16T07:04:56;1.40;99.90
21033;DHT22;10675;47.976;7.824;2023-02-16T07:07:21;1.50;99.90
21033;DHT22;10675;47.976;7.824;2023-02-16T07:09:49;1.50;99.90
21033;DHT22;10675;47.976;7.824;2023-02-16T07:12:14;1.50;99.90
21033;DHT22;10675;47.976;7.824;2023-02-16T07:14:40;1.50;99.90
21033;DHT22;10675;47.976;7.824;2023-02-16T07:17:05;1.70;99.90
21033;DHT22;10675;47.976;7.824;2023-02-16T07:19:31;1.80;99.90
21033;DHT22;10675;47.976;7.824;2023-02-16T07:22:01;1.80;99.90
21033;DHT22;10675;47.976;7.824;2023-02-16T07:24:27;1.90;99.90
21033;DHT22;10675;47.976;7.824;2023-02-16T07:26:54;2.00;99.90
21033;DHT22;10675;47.976;7.824;2023-02-16T07:29:20;2.40;99.90
21033;DHT22;10675;47.976;7.824;2023-02-16T07:31:45;2.50;99.90
21033;DHT22;10675;47.976;7.824;2023-02-16T07:34:11;2.60;99.90
21033;DHT22;10675;47.976;7.824;2023-02-16T07:36:36;2.70;99.90
21033;DHT22;10675;47.976;7.824;2023-02-16T07:39:02;2.60;99.90
21033;DHT22;10675;47.976;7.824;2023-02-16T07:41:28;2.80;99.90
21033;DHT22;10675;47.976;7.824;2023-02-16T07:43:54;2.90;99.90
21033;DHT22;10675;47.976;7.824;2023-02-16T07:46:19;2.80;99.90
21033;DHT22;10675;47.976;7.824;2023-02-16T07:48:50;2.90;99.90
21033;DHT22;10675;47.976;7.824;2023-02-16T07:51:27;3.00;99.90
21033;DHT22;10675;47.976;7.824;2023-02-16T07:53:55;3.20;99.90
21033;DHT22;10675;47.976;7.824;2023-02-16T07:56:26;3.40;99.90
21033;DHT22;10675;47.976;7.824;2023-02-16T07:58:53;3.30;99.90
21033;DHT22;10675;47.976;7.824;2023-02-16T08:01:19;3.40;99.90
21033;DHT22;10675;47.976;7.824;2023-02-16T08:03:45;3.60;99.90
21033;DHT22;10675;47.976;7.824;2023-02-16T08:06:11;3.80;99.90
21033;DHT22;10675;47.976;7.824;2023-02-16T08:08:37;4.10;99.90
21033;DHT22;10675;47.976;7.824;2023-02-16T08:11:22;4.40;99.90
21033;DHT22;10675;47.976;7.824;2023-02-16T08:13:49;4.50;99.90
21033;DHT22;10675;47.976;7.824;2023-02-16T08:16:17;4.70;99.90
21033;DHT22;10675;47.976;7.824;2023-02-16T08:18:43;5.00;99.90
21033;DHT22;10675;47.976;7.824;2023-02-16T08:21:14;5.20;99.90
21033;DHT22;10675;47.976;7.824;2023-02-16T08:23:42;5.40;99.90
21033;DHT22;10675;47.976;7.824;2023-02-16T08:26:13;5.60;99.90
21033;DHT22;10675;47.976;7.824;2023-02-16T08:28:39;5.90;99.90
21033;DHT22;10675;47.976;7.824;2023-02-16T08:31:13;6.00;99.90
21033;DHT22;10675;47.976;7.824;2023-02-16T08:33:40;6.20;99.90
21033;DHT22;10675;47.976;7.824;2023-02-16T08:36:06;6.20;99.90
21033;DHT22;10675;47.976;7.824;2023-02-16T08:38:36;6.40;99.90
21033;DHT22;10675;47.976;7.824;2023-02-16T08:41:01;6.70;99.90
21033;DHT22;10675;47.976;7.824;2023-02-16T08:43:27;6.90;99.90
21033;DHT22;10675;47.976;7.824;2023-02-16T08:45:52;7.10;99.90
21033;DHT22;10675;47.976;7.824;2023-02-16T08:48:18;7.20;99.90
21033;DHT22;10675;47.976;7.824;2023-02-16T08:50:44;7.40;99.90
21033;DHT22;10675;47.976;7.824;2023-02-16T08:53:22;7.50;99.90
21033;DHT22;10675;47.976;7.824;2023-02-16T08:55:55;7.80;99.90
21033;DHT22;10675;47.976;7.824;2023-02-16T08:58:22;7.90;99.90
21033;DHT22;10675;47.976;7.824;2023-02-16T09:00:49;8.10;99.90
21033;DHT22;10675;47.976;7.824;2023-02-16T09:03:15;8.40;99.90
21033;DHT22;10675;47.976;7.824;2023-02-16T09:05:43;8.50;99.90
21033;DHT22;10675;47.976;7.824;2023-02-16T09:08:09;8.40;99.90
21033;DHT22;10675;47.976;7.824;2023-02-16T09:10:35;8.50;99.80
21033;DHT22;10675;47.976;7.824;2023-02-16T09:13:00;8.70;99.00
21033;DHT22;10675;47.976;7.824;2023-02-16T09:15:26;8.80;98.30
21033;DHT22;10675;47.976;7.824;2023-02-16T09:17:52;8.90;97.80
21033;DHT22;10675;47.976;7.824;2023-02-16T09:20:17;9.00;97.30
21033;DHT22;10675;47.976;7.824;2023-02-16T09:22:44;9.10;96.40
21033;DHT22;10675;47.976;7.824;2023-02-16T09:25:11;9.20;96.80
21033;DHT22;10675;47.976;7.824;2023-02-16T09:27:36;9.30;96.30
21033;DHT22;10675;47.976;7.824;2023-02-16T09:30:03;9.50;95.90
21033;DHT22;10675;47.976;7.824;2023-02-16T09:32:30;9.70;94.80
21033;DHT22;10675;47.976;7.824;2023-02-16T09:34:56;9.80;94.00
21033;DHT22;10675;47.976;7.824;2023-02-16T09:37:22;10.00;94.90
21033;DHT22;10675;47.976;7.824;2023-02-16T09:39:47;10.10;93.60
21033;DHT22;10675;47.976;7.824;2023-02-16T09:45:16;10.50;91.70
21033;DHT22;10675;47.976;7.824;2023-02-16T09:47:46;10.80;91.10
21033;DHT22;10675;47.976;7.824;2023-02-16T09:50:30;11.00;91.20
21033;DHT22;10675;47.976;7.824;2023-02-16T09:53:02;11.20;89.80
21033;DHT22;10675;47.976;7.824;2023-02-16T09:55:42;11.30;88.20
21033;DHT22;10675;47.976;7.824;2023-02-16T09:58:29;11.60;87.20
21033;DHT22;10675;47.976;7.824;2023-02-16T10:04:17;12.10;83.30
21033;DHT22;10675;47.976;7.824;2023-02-16T10:09:17;12.60;75.70
21033;DHT22;10675;47.976;7.824;2023-02-16T10:11:48;12.50;76.00
21033;DHT22;10675;47.976;7.824;2023-02-16T10:14:38;12.60;74.40
21033;DHT22;10675;47.976;7.824;2023-02-16T10:17:22;12.70;72.70
21033;DHT22;10675;47.976;7.824;2023-02-16T10:22:42;12.80;72.50
21033;DHT22;10675;47.976;7.824;2023-02-16T10:25:55;12.80;73.10
21033;DHT22;10675;47.976;7.824;2023-02-16T10:28:16;12.90;72.50
21033;DHT22;10675;47.976;7.824;2023-02-16T10:30:50;13.00;72.20
21033;DHT22;10675;47.976;7.824;2023-02-16T10:42:10;13.00;66.70
21033;DHT22;10675;47.976;7.824;2023-02-16T10:44:47;13.20;65.80
21033;DHT22;10675;47.976;7.824;2023-02-16T10:47:29;13.20;64.90
21033;DHT22;10675;47.976;7.824;2023-02-16T10:49:56;13.30;64.60
21033;DHT22;10675;47.976;7.824;2023-02-16T10:52:22;13.30;63.90
21033;DHT22;10675;47.976;7.824;2023-02-16T10:54:48;13.40;62.10
21033;DHT22;10675;47.976;7.824;2023-02-16T10:57:31;13.40;62.00
21033;DHT22;10675;47.976;7.824;2023-02-16T11:00:00;13.40;62.20
21033;DHT22;10675;47.976;7.824;2023-02-16T11:02:35;13.50;62.30
21033;DHT22;10675;47.976;7.824;2023-02-16T11:07:55;13.60;61.30
21033;DHT22;10675;47.976;7.824;2023-02-16T11:12:58;13.60;60.00
21033;DHT22;10675;47.976;7.824;2023-02-16T11:15:25;13.50;59.10
21033;DHT22;10675;47.976;7.824;2023-02-16T11:17:56;13.60;60.30
21033;DHT22;10675;47.976;7.824;2023-02-16T11:20:27;13.60;58.90
21033;DHT22;10675;47.976;7.824;2023-02-16T11:22:53;13.60;57.60
21033;DHT22;10675;47.976;7.824;2023-02-16T11:25:36;13.70;58.20
21033;DHT22;10675;47.976;7.824;2023-02-16T11:28:02;13.90;57.20
21033;DHT22;10675;47.976;7.824;2023-02-16T11:33:00;14.10;56.50
21033;DHT22;10675;47.976;7.824;2023-02-16T11:35:26;14.30;57.00
21033;DHT22;10675;47.976;7.824;2023-02-16T11:37:52;14.30;55.10
21033;DHT22;10675;47.976;7.824;2023-02-16T11:40:25;14.50;55.10
21033;DHT22;10675;47.976;7.824;2023-02-16T11:42:54;14.60;54.80
21033;DHT22;10675;47.976;7.824;2023-02-16T11:45:29;14.60;53.40
21033;DHT22;10675;47.976;7.824;2023-02-16T11:48:01;14.70;53.70
21033;DHT22;10675;47.976;7.824;2023-02-16T11:50:30;14.80;54.50
21033;DHT22;10675;47.976;7.824;2023-02-16T11:53:15;14.90;53.60
21033;DHT22;10675;47.976;7.824;2023-02-16T11:55:47;14.90;52.50
21033;DHT22;10675;47.976;7.824;2023-02-16T12:04:06;14.70;51.40
21033;DHT22;10675;47.976;7.824;2023-02-16T12:07:00;14.50;51.80
21033;DHT22;10675;47.976;7.824;2023-02-16T12:09:42;14.40;51.20
21033;DHT22;10675;47.976;7.824;2023-02-16T12:12:15;14.70;50.60
21033;DHT22;10675;47.976;7.824;2023-02-16T12:17:34;14.70;50.00
21033;DHT22;10675;47.976;7.824;2023-02-16T12:23:03;15.20;52.10
21033;DHT22;10675;47.976;7.824;2023-02-16T12:25:38;15.60;51.00
21033;DHT22;10675;47.976;7.824;2023-02-16T12:28:19;15.60;50.50
21033;DHT22;10675;47.976;7.824;2023-02-16T12:31:18;15.60;50.20
21033;DHT22;10675;47.976;7.824;2023-02-16T12:36:59;15.20;48.80
21033;DHT22;10675;47.976;7.824;2023-02-16T12:44:51;15.10;49.80
21033;DHT22;10675;47.976;7.824;2023-02-16T12:47:48;15.00;49.90
21033;DHT22;10675;47.976;7.824;2023-02-16T12:50:21;14.80;49.40
21033;DHT22;10675;47.976;7.824;2023-02-16T12:52:58;14.80;49.30
21033;DHT22;10675;47.976;7.824;2023-02-16T12:55:38;14.90;50.10
21033;DHT22;10675;47.976;7.824;2023-02-16T12:58:08;15.10;50.60
21033;DHT22;10675;47.976;7.824;2023-02-16T13:00:49;15.10;51.10
21033;DHT22;10675;47.976;7.824;2023-02-16T13:05:49;14.90;51.10
21033;DHT22;10675;47.976;7.824;2023-02-16T13:08:27;14.90;51.30
21033;DHT22;10675;47.976;7.824;2023-02-16T13:11:07;14.90;51.90
21033;DHT22;10675;47.976;7.824;2023-02-16T13:13:34;15.00;52.30
21033;DHT22;10675;47.976;7.824;2023-02-16T13:18:41;14.90;52.40
21033;DHT22;10675;47.976;7.824;2023-02-16T13:21:30;14.90;52.60
21033;DHT22;10675;47.976;7.824;2023-02-16T13:24:11;15.00;53.40
21033;DHT22;10675;47.976;7.824;2023-02-16T13:38:05;15.10;54.40
21033;DHT22;10675;47.976;7.824;2023-02-16T13:40:21;14.90;54.00
21033;DHT22;10675;47.976;7.824;2023-02-16T13:43:11;14.90;54.60
21033;DHT22;10675;47.976;7.824;2023-02-16T13:45:40;14.80;54.80
21033;DHT22;10675;47.976;7.824;2023-02-16T13:50:46;14.60;55.60
21033;DHT22;10675;47.976;7.824;2023-02-16T13:53:20;14.70;56.60
21033;DHT22;10675;47.976;7.824;2023-02-16T13:55:47;14.70;55.90
21033;DHT22;10675;47.976;7.824;2023-02-16T14:00:45;14.70;55.30
21033;DHT22;10675;47.976;7.824;2023-02-16T14:05:48;14.70;55.80
21033;DHT22;10675;47.976;7.824;2023-02-16T14:08:20;15.10;56.20
21033;DHT22;10675;47.976;7.824;2023-02-16T14:15:54;14.80;54.90
21033;DHT22;10675;47.976;7.824;2023-02-16T14:21:04;15.10;56.30
21033;DHT22;10675;47.976;7.824;2023-02-16T14:23:32;14.80;55.20
21033;DHT22;10675;47.976;7.824;2023-02-16T14:26:03;14.80;56.10
21033;DHT22;10675;47.976;7.824;2023-02-16T14:31:03;14.90;56.60
21033;DHT22;10675;47.976;7.824;2023-02-16T14:33:43;14.90;56.90
21033;DHT22;10675;47.976;7.824;2023-02-16T14:36:16;14.90;56.60
21033;DHT22;10675;47.976;7.824;2023-02-16T14:38:47;14.90;57.30
21033;DHT22;10675;47.976;7.824;2023-02-16T14:43:58;14.90;57.30
21033;DHT22;10675;47.976;7.824;2023-02-16T14:46:29;15.00;57.70
21033;DHT22;10675;47.976;7.824;2023-02-16T14:57:13;14.90;58.00
21033;DHT22;10675;47.976;7.824;2023-02-16T14:59:58;14.90;58.20
21033;DHT22;10675;47.976;7.824;2023-02-16T15:02:31;14.90;57.50
21033;DHT22;10675;47.976;7.824;2023-02-16T15:05:14;14.90;57.50
21033;DHT22;10675;47.976;7.824;2023-02-16T15:07:40;14.80;57.30
21033;DHT22;10675;47.976;7.824;2023-02-16T15:10:06;14.70;57.50
21033;DHT22;10675;47.976;7.824;2023-02-16T15:12:39;14.60;58.30
21033;DHT22;10675;47.976;7.824;2023-02-16T15:15:07;14.50;58.80
21033;DHT22;10675;47.976;7.824;2023-02-16T15:17:47;14.40;58.80
21033;DHT22;10675;47.976;7.824;2023-02-16T15:20:30;14.30;59.20
21033;DHT22;10675;47.976;7.824;2023-02-16T15:23:00;14.20;59.50
21033;DHT22;10675;47.976;7.824;2023-02-16T15:25:32;14.20;60.00
21033;DHT22;10675;47.976;7.824;2023-02-16T15:28:15;14.20;59.80
21033;DHT22;10675;47.976;7.824;2023-02-16T15:30:51;14.10;60.10
21033;DHT22;10675;47.976;7.824;2023-02-16T15:35:54;14.20;60.00
21033;DHT22;10675;47.976;7.824;2023-02-16T15:38:23;14.20;60.30
21033;DHT22;10675;47.976;7.824;2023-02-16T15:40:54;14.20;59.60
21033;DHT22;10675;47.976;7.824;2023-02-16T15:43:36;14.10;59.90
21033;DHT22;10675;47.976;7.824;2023-02-16T15:46:06;14.10;60.00
21033;DHT22;10675;47.976;7.824;2023-02-16T15:48:38;14.10;60.20
21033;DHT22;10675;47.976;7.824;2023-02-16T15:51:17;14.00;60.50
21033;DHT22;10675;47.976;7.824;2023-02-16T15:56:45;14.00;60.20
21033;DHT22;10675;47.976;7.824;2023-02-16T15:59:39;14.00;60.60
21033;DHT22;10675;47.976;7.824;2023-02-16T16:02:19;14.00;60.90
21033;DHT22;10675;47.976;7.824;2023-02-16T16:04:54;13.90;61.40
21033;DHT22;10675;47.976;7.824;2023-02-16T16:07:28;13.90;60.50
21033;DHT22;10675;47.976;7.824;2023-02-16T16:09:55;14.00;59.70
21033;DHT22;10675;47.976;7.824;2023-02-16T16:12:22;14.00;59.80
21033;DHT22;10675;47.976;7.824;2023-02-16T16:14:58;14.00;59.60
21033;DHT22;10675;47.976;7.824;2023-02-16T16:17:28;14.00;59.60
21033;DHT22;10675;47.976;7.824;2023-02-16T16:19:55;14.00;59.30
21033;DHT22;10675;47.976;7.824;2023-02-16T16:23:23;13.90;59.80
21033;DHT22;10675;47.976;7.824;2023-02-16T16:25:46;13.90;59.60
21033;DHT22;10675;47.976;7.824;2023-02-16T16:28:32;13.90;59.80
21033;DHT22;10675;47.976;7.824;2023-02-16T16:31:28;13.80;59.80
21033;DHT22;10675;47.976;7.824;2023-02-16T16:34:07;13.80;59.90
21033;DHT22;10675;47.976;7.824;2023-02-16T16:39:09;13.70;60.10
21033;DHT22;10675;47.976;7.824;2023-02-16T16:41:36;13.70;60.40
21033;DHT22;10675;47.976;7.824;2023-02-16T16:44:02;13.60;60.60
21033;DHT22;10675;47.976;7.824;2023-02-16T16:46:28;13.60;60.50
21033;DHT22;10675;47.976;7.824;2023-02-16T16:48:59;13.50;60.80
21033;DHT22;10675;47.976;7.824;2023-02-16T16:51:35;13.50;60.30
21033;DHT22;10675;47.976;7.824;2023-02-16T16:54:30;13.50;60.20
21033;DHT22;10675;47.976;7.824;2023-02-16T16:56:56;13.40;60.00
21033;DHT22;10675;47.976;7.824;2023-02-16T16:59:22;13.40;60.00
21033;DHT22;10675;47.976;7.824;2023-02-16T17:01:47;13.40;60.00
21033;DHT22;10675;47.976;7.824;2023-02-16T17:04:15;13.40;60.00
21033;DHT22;10675;47.976;7.824;2023-02-16T17:06:41;13.40;59.90
21033;DHT22;10675;47.976;7.824;2023-02-16T17:09:06;13.40;60.00
21033;DHT22;10675;47.976;7.824;2023-02-16T17:11:34;13.40;60.00
21033;DHT22;10675;47.976;7.824;2023-02-16T17:14:17;13.40;59.80
21033;DHT22;10675;47.976;7.824;2023-02-16T17:16:48;13.30;60.10
21033;DHT22;10675;47.976;7.824;2023-02-16T17:19:17;13.30;59.90
21033;DHT22;10675;47.976;7.824;2023-02-16T17:21:43;13.30;60.00
21033;DHT22;10675;47.976;7.824;2023-02-16T17:24:09;13.20;61.20
21033;DHT22;10675;47.976;7.824;2023-02-16T17:26:36;13.20;60.80
21033;DHT22;10675;47.976;7.824;2023-02-16T17:29:02;13.10;61.00
21033;DHT22;10675;47.976;7.824;2023-02-16T17:31:28;13.00;60.90
21033;DHT22;10675;47.976;7.824;2023-02-16T17:33:53;13.00;60.90
21033;DHT22;10675;47.976;7.824;2023-02-16T17:36:20;13.00;60.60
21033;DHT22;10675;47.976;7.824;2023-02-16T17:38:47;13.10;60.10
21033;DHT22;10675;47.976;7.824;2023-02-16T17:41:21;13.10;60.10
21033;DHT22;10675;47.976;7.824;2023-02-16T17:43:47;13.20;59.40
21033;DHT22;10675;47.976;7.824;2023-02-16T17:46:13;13.20;59.60
21033;DHT22;10675;47.976;7.824;2023-02-16T17:48:39;13.20;59.50
21033;DHT22;10675;47.976;7.824;2023-02-16T17:51:08;13.20;59.00
21033;DHT22;10675;47.976;7.824;2023-02-16T17:53:37;13.30;58.90
21033;DHT22;10675;47.976;7.824;2023-02-16T17:56:03;13.20;59.60
21033;DHT22;10675;47.976;7.824;2023-02-16T17:58:29;13.20;59.50
21033;DHT22;10675;47.976;7.824;2023-02-16T18:00:55;13.20;59.50
21033;DHT22;10675;47.976;7.824;2023-02-16T18:03:20;13.20;59.90
21033;DHT22;10675;47.976;7.824;2023-02-16T18:05:47;13.10;60.00
21033;DHT22;10675;47.976;7.824;2023-02-16T18:08:13;13.10;60.30
21033;DHT22;10675;47.976;7.824;2023-02-16T18:10:44;13.10;60.40